Hlavní strana
METAR-TAF:

METAR-TAF

Letiště :

Gwinnett County Airport (Briscoe Field)

Lawrenceville, Georgie, Spojené státy americké

zeměpisná šířka: 33-58-41N, zeměpisná délka: 083-57-45W, výška: 323 m

Aktuální stav počasí

Zpráva byla vytvořena před 32 minutami, v 10:56 UTC
Bezvětří
Teplota 20°C
Vlhkost vzduchu 100%
Tlak 1022 hPa
Viditelnost: 14.5 km
Jasno

METAR: KLZU 241056Z 00000KT 9SM CLR 20/20 A3019 RMK AO2 SLP223 T02000200

Čas: 07:28 (11:28 UTC)


TAF: chybějící

Stav a předpovědi počasí z více než 4 000 letišť (zprávy METAR a TAF).

Červené a žluté tečky na mapě představují dostupné meteorologické stanice.

Když kurzor umístíte na tečku, zobrazí se název stanice.

Pak kliknutím zobrazíte stav a předpověď počasí.

Chcete-li změnit mapu, kliknutím na zelené tlačítko se znaménkem +mapu přiblížíte, kliknutím na zelené tlačítko se znaménkem – mapu oddálíte a kliknutím na zelené šipky přejdete na sousední mapy.


METAR-TAF: